createdAt,value
2023-04-18T04:23:43.632Z,11.89
2023-04-18T04:27:49.799Z,11.89
2023-04-18T04:31:53.106Z,11.54
2023-04-18T04:35:57.397Z,11.44
2023-04-18T04:40:00.776Z,11.58
2023-04-18T04:44:04.528Z,11.59
2023-04-18T04:48:09.193Z,11.73
2023-04-18T04:52:12.210Z,11.67
2023-04-18T04:56:15.679Z,11.65
2023-04-18T05:00:23.053Z,11.73
2023-04-18T05:04:26.577Z,11.66
2023-04-18T05:08:29.721Z,11.75
2023-04-18T05:12:32.372Z,11.66
2023-04-18T05:16:36.016Z,11.72
2023-04-18T05:20:38.702Z,11.72
2023-04-18T05:24:42.092Z,11.80
2023-04-18T05:28:44.696Z,11.93
2023-04-18T05:37:48.360Z,12.20
2023-04-18T05:41:51.347Z,12.13
2023-04-18T05:45:55.849Z,12.31
2023-04-18T05:50:00.581Z,12.31
2023-04-18T05:54:03.673Z,12.33
2023-04-18T05:58:09.184Z,12.34
2023-04-18T06:02:14.043Z,12.54
2023-04-18T06:06:17.964Z,12.56
2023-04-18T06:10:22.299Z,12.63
2023-04-18T06:14:27.099Z,12.73
2023-04-18T06:18:29.791Z,13.04
2023-04-18T06:22:34.266Z,13.11
2023-04-18T06:26:37.001Z,13.13
2023-04-18T06:30:40.045Z,13.21
2023-04-18T06:34:44.014Z,13.25
2023-04-18T06:38:58.608Z,13.41
2023-04-18T06:43:07.604Z,13.37
2023-04-18T06:47:11.797Z,13.53
2023-04-18T06:51:14.454Z,13.58
2023-04-18T06:55:17.422Z,13.86
2023-04-18T06:59:21.696Z,14.11
2023-04-18T07:03:24.990Z,14.27
2023-04-18T07:07:29.536Z,14.46
2023-04-18T07:11:33.495Z,14.80
2023-04-18T07:15:36.619Z,15.43
2023-04-18T07:19:40.603Z,15.92
2023-04-18T07:23:43.234Z,16.47
2023-04-18T07:27:46.421Z,16.89
2023-04-18T07:31:49.150Z,16.46
2023-04-18T07:35:53.270Z,16.49
2023-04-18T07:39:59.626Z,16.84
2023-04-18T07:44:02.992Z,16.98
2023-04-18T07:48:07.171Z,17.08
2023-04-18T07:52:10.241Z,17.02
2023-04-18T07:56:14.582Z,17.46
2023-04-18T08:00:18.395Z,18.02
2023-04-18T08:04:21.640Z,17.70
2023-04-18T08:08:24.401Z,17.35
2023-04-18T08:12:27.534Z,17.14
2023-04-18T08:16:30.246Z,17.36
2023-04-18T08:20:34.530Z,17.02
2023-04-18T08:24:38.884Z,17.37
2023-04-18T08:28:42.923Z,17.32
2023-04-18T08:32:46.560Z,17.51
2023-04-18T08:36:51.034Z,17.48
2023-04-18T08:40:53.790Z,17.91
2023-04-18T08:44:59.899Z,17.78
2023-04-18T08:49:04.780Z,18.48
2023-04-18T08:53:08.511Z,19.06
2023-04-18T08:57:13.833Z,19.23
2023-04-18T09:01:18.213Z,18.77
2023-04-18T09:05:22.782Z,19.56
2023-04-18T09:09:27.721Z,20.30
2023-04-18T09:13:39.953Z,20.23
2023-04-18T09:17:56.034Z,20.91
2023-04-18T09:22:02.825Z,20.83
2023-04-18T09:26:07.367Z,20.63
2023-04-18T09:30:10.618Z,21.02
2023-04-18T09:34:25.198Z,21.82
2023-04-18T09:38:41.398Z,21.90
2023-04-18T09:42:56.784Z,21.54
2023-04-18T09:47:03.998Z,21.39
2023-04-18T09:51:11.768Z,21.41
2023-04-18T09:55:19.428Z,21.35
2023-04-18T09:59:37.483Z,21.59
2023-04-18T10:03:47.494Z,21.34
2023-04-18T10:07:51.222Z,21.89
2023-04-18T10:11:54.668Z,20.67
2023-04-18T10:15:57.807Z,20.90
2023-04-18T10:20:06.628Z,20.83
2023-04-18T10:24:33.300Z,21.12
2023-04-18T10:28:59.661Z,20.66
2023-04-18T10:33:32.907Z,22.22
2023-04-18T10:37:52.525Z,22.93
2023-04-18T10:41:57.095Z,23.09
2023-04-18T10:46:20.475Z,22.42
2023-04-18T10:50:56.577Z,23.47
2023-04-18T10:55:36.964Z,23.63
2023-04-18T10:59:50.166Z,24.26
2023-04-18T11:03:53.874Z,23.49
2023-04-18T11:07:59.242Z,23.81
2023-04-18T11:12:09.471Z,23.22
2023-04-18T11:16:34.800Z,22.57
2023-04-18T11:20:49.479Z,23.80
2023-04-18T11:24:53.257Z,22.79
2023-04-18T11:28:59.167Z,22.89
2023-04-18T11:33:12.265Z,23.48
2023-04-18T11:37:15.690Z,22.62
2023-04-18T11:41:18.882Z,21.49
2023-04-18T11:45:21.752Z,21.89
2023-04-18T11:49:29.835Z,22.33
2023-04-18T11:53:37.047Z,23.53
2023-04-18T11:57:41.041Z,23.11
2023-04-18T12:01:43.972Z,23.22
2023-04-18T12:05:47.266Z,23.27
2023-04-18T12:09:52.753Z,23.86
2023-04-18T12:13:56.935Z,24.28
2023-04-18T12:18:00.978Z,24.69
2023-04-18T12:22:17.080Z,24.70
2023-04-18T12:26:20.581Z,24.61
2023-04-18T12:30:27.398Z,24.78
2023-04-18T12:34:30.890Z,24.59
2023-04-18T12:38:34.332Z,24.75
2023-04-18T12:42:37.102Z,25.63
2023-04-18T12:46:40.182Z,25.84
2023-04-18T12:50:42.912Z,25.28
2023-04-18T12:54:46.200Z,25.84
2023-04-18T12:58:49.496Z,25.79
2023-04-18T13:02:53.122Z,24.90
2023-04-18T13:06:56.066Z,24.44
2023-04-18T13:10:59.229Z,24.77
2023-04-18T13:15:01.942Z,24.97
2023-04-18T13:19:05.067Z,25.05
2023-04-18T13:23:07.736Z,24.36
2023-04-18T13:27:10.799Z,24.14
2023-04-18T13:31:15.050Z,23.70
2023-04-18T13:35:19.745Z,22.88
2023-04-18T13:39:24.513Z,23.02
2023-04-18T13:43:27.452Z,23.39
2023-04-18T13:47:30.641Z,22.60
2023-04-18T13:51:44.420Z,22.01
2023-04-18T13:55:50.381Z,22.95
2023-04-18T14:00:28.923Z,22.25
2023-04-18T14:04:34.110Z,21.50
2023-04-18T14:08:56.709Z,20.58
2023-04-18T14:13:02.077Z,21.88
2023-04-18T14:17:04.953Z,23.51
2023-04-18T14:21:07.972Z,23.19
2023-04-18T14:25:10.740Z,23.62
2023-04-18T14:29:14.670Z,23.12
2023-04-18T14:33:17.885Z,23.09
2023-04-18T14:37:21.417Z,23.46
2023-04-18T14:41:24.145Z,22.84
2023-04-18T14:45:27.234Z,22.81
2023-04-18T14:49:29.922Z,22.45
2023-04-18T14:53:32.955Z,23.46
2023-04-18T14:57:36.804Z,23.11
2023-04-18T15:01:41.618Z,23.50
2023-04-18T15:05:46.661Z,23.49
2023-04-18T15:09:49.793Z,23.39
2023-04-18T15:13:52.404Z,23.57
2023-04-18T15:17:55.463Z,22.86
